sensor_id;sensor_type;location;lat;lon;timestamp;pressure;altitude;pressure_sealevel;temperature;humidity
12973;BME280;6551;51.056;9.466;2024-01-27T00:02:01;99081.75;;;11.30;51.30
12973;BME280;6551;51.056;9.466;2024-01-27T00:04:27;99083.63;;;11.30;51.50
12973;BME280;6551;51.056;9.466;2024-01-27T00:06:53;99085.31;;;11.16;51.73
12973;BME280;6551;51.056;9.466;2024-01-27T00:09:18;99086.53;;;10.99;51.71
12973;BME280;6551;51.056;9.466;2024-01-27T00:11:44;99089.56;;;10.81;52.42
12973;BME280;6551;51.056;9.466;2024-01-27T00:14:11;99087.91;;;10.80;52.80
12973;BME280;6551;51.056;9.466;2024-01-27T00:16:36;99094.63;;;10.76;52.79
12973;BME280;6551;51.056;9.466;2024-01-27T00:19:02;99103.81;;;10.59;52.97
12973;BME280;6551;51.056;9.466;2024-01-27T00:21:28;99095.66;;;10.46;53.30
12973;BME280;6551;51.056;9.466;2024-01-27T00:23:53;99095.38;;;10.55;52.91
12973;BME280;6551;51.056;9.466;2024-01-27T00:26:21;99096.19;;;10.56;53.27
12973;BME280;6551;51.056;9.466;2024-01-27T00:28:47;99095.53;;;10.39;53.74
12973;BME280;6551;51.056;9.466;2024-01-27T00:31:14;99093.91;;;10.53;53.38
12973;BME280;6551;51.056;9.466;2024-01-27T00:33:40;99094.72;;;10.24;53.64
12973;BME280;6551;51.056;9.466;2024-01-27T00:36:06;99106.13;;;10.33;54.10
12973;BME280;6551;51.056;9.466;2024-01-27T00:38:31;99102.91;;;10.37;54.00
12973;BME280;6551;51.056;9.466;2024-01-27T00:40:57;99109.78;;;10.32;54.05
12973;BME280;6551;51.056;9.466;2024-01-27T00:43:24;99114.09;;;10.33;54.52
12973;BME280;6551;51.056;9.466;2024-01-27T00:45:50;99117.19;;;9.99;54.44
12973;BME280;6551;51.056;9.466;2024-01-27T00:48:17;99114.81;;;10.04;54.60
12973;BME280;6551;51.056;9.466;2024-01-27T00:50:42;99127.28;;;10.04;54.58
12973;BME280;6551;51.056;9.466;2024-01-27T00:53:09;99135.56;;;10.09;54.38
12973;BME280;6551;51.056;9.466;2024-01-27T00:55:35;99129.06;;;10.11;54.38
12973;BME280;6551;51.056;9.466;2024-01-27T00:58:01;99123.31;;;9.99;54.85
12973;BME280;6551;51.056;9.466;2024-01-27T01:00:26;99136.53;;;9.93;54.88
12973;BME280;6551;51.056;9.466;2024-01-27T01:02:52;99130.16;;;9.79;55.07
12973;BME280;6551;51.056;9.466;2024-01-27T01:05:19;99141.06;;;10.07;55.32
12973;BME280;6551;51.056;9.466;2024-01-27T01:07:46;99147.19;;;10.16;55.26
12973;BME280;6551;51.056;9.466;2024-01-27T01:10:11;99150.34;;;10.34;54.49
12973;BME280;6551;51.056;9.466;2024-01-27T01:12:38;99150.22;;;10.27;54.58
12973;BME280;6551;51.056;9.466;2024-01-27T01:15:05;99152.22;;;9.88;55.07
12973;BME280;6551;51.056;9.466;2024-01-27T01:17:31;99154.91;;;10.02;55.18
12973;BME280;6551;51.056;9.466;2024-01-27T01:19:56;99153.25;;;10.02;55.25
12973;BME280;6551;51.056;9.466;2024-01-27T01:22:22;99157.47;;;9.96;55.41
12973;BME280;6551;51.056;9.466;2024-01-27T01:24:48;99160.16;;;9.65;55.87
12973;BME280;6551;51.056;9.466;2024-01-27T01:27:14;99158.94;;;9.76;56.03
12973;BME280;6551;51.056;9.466;2024-01-27T01:29:44;99174.06;;;9.75;56.20
12973;BME280;6551;51.056;9.466;2024-01-27T01:32:10;99176.72;;;9.75;56.18
12973;BME280;6551;51.056;9.466;2024-01-27T01:34:35;99172.59;;;9.73;55.80
12973;BME280;6551;51.056;9.466;2024-01-27T01:37:01;99187.03;;;10.01;56.02
12973;BME280;6551;51.056;9.466;2024-01-27T01:39:28;99192.28;;;9.86;56.00
12973;BME280;6551;51.056;9.466;2024-01-27T01:41:54;99190.16;;;9.82;56.14
12973;BME280;6551;51.056;9.466;2024-01-27T01:44:21;99186.94;;;9.64;55.77
12973;BME280;6551;51.056;9.466;2024-01-27T01:46:48;99194.69;;;9.73;56.24
12973;BME280;6551;51.056;9.466;2024-01-27T01:49:15;99198.63;;;9.77;56.49
12973;BME280;6551;51.056;9.466;2024-01-27T01:51:41;99192.38;;;9.70;56.48
12973;BME280;6551;51.056;9.466;2024-01-27T01:54:07;99191.09;;;9.58;56.69
12973;BME280;6551;51.056;9.466;2024-01-27T01:56:33;99196.09;;;9.61;56.72
12973;BME280;6551;51.056;9.466;2024-01-27T01:58:59;99194.09;;;9.63;56.52
12973;BME280;6551;51.056;9.466;2024-01-27T02:01:25;99204.19;;;9.68;56.24
12973;BME280;6551;51.056;9.466;2024-01-27T02:03:57;99208.13;;;9.80;56.78
12973;BME280;6551;51.056;9.466;2024-01-27T02:06:23;99203.00;;;9.39;56.83
12973;BME280;6551;51.056;9.466;2024-01-27T02:08:50;99210.38;;;9.29;56.96
12973;BME280;6551;51.056;9.466;2024-01-27T02:11:17;99202.84;;;9.41;57.46
12973;BME280;6551;51.056;9.466;2024-01-27T02:13:44;99199.19;;;9.42;57.06
12973;BME280;6551;51.056;9.466;2024-01-27T02:16:10;99201.22;;;9.32;57.44
12973;BME280;6551;51.056;9.466;2024-01-27T02:18:35;99203.66;;;9.41;57.11
12973;BME280;6551;51.056;9.466;2024-01-27T02:21:01;99212.78;;;9.47;57.13
12973;BME280;6551;51.056;9.466;2024-01-27T02:23:27;99217.72;;;9.19;57.25
12973;BME280;6551;51.056;9.466;2024-01-27T02:25:53;99221.50;;;9.25;57.70
12973;BME280;6551;51.056;9.466;2024-01-27T02:28:20;99228.66;;;9.32;57.83
12973;BME280;6551;51.056;9.466;2024-01-27T02:30:47;99231.81;;;9.20;57.58
12973;BME280;6551;51.056;9.466;2024-01-27T02:33:14;99238.75;;;9.37;57.92
12973;BME280;6551;51.056;9.466;2024-01-27T02:35:39;99222.00;;;9.28;57.72
12973;BME280;6551;51.056;9.466;2024-01-27T02:38:05;99225.66;;;9.35;57.36
12973;BME280;6551;51.056;9.466;2024-01-27T02:40:31;99225.88;;;9.57;57.37
12973;BME280;6551;51.056;9.466;2024-01-27T02:42:56;99219.38;;;9.59;57.15
12973;BME280;6551;51.056;9.466;2024-01-27T02:45:23;99204.63;;;9.49;57.38
12973;BME280;6551;51.056;9.466;2024-01-27T02:47:50;99204.50;;;9.42;57.61
12973;BME280;6551;51.056;9.466;2024-01-27T02:50:18;99208.38;;;9.62;57.33
12973;BME280;6551;51.056;9.466;2024-01-27T02:52:44;99205.88;;;9.69;57.42
12973;BME280;6551;51.056;9.466;2024-01-27T02:55:09;99205.81;;;9.77;57.26
12973;BME280;6551;51.056;9.466;2024-01-27T02:57:35;99203.16;;;9.77;57.26
12973;BME280;6551;51.056;9.466;2024-01-27T03:00:01;99211.25;;;9.83;57.16
12973;BME280;6551;51.056;9.466;2024-01-27T03:02:27;99210.13;;;9.78;57.51
12973;BME280;6551;51.056;9.466;2024-01-27T03:04:52;99198.59;;;9.63;57.82
12973;BME280;6551;51.056;9.466;2024-01-27T03:07:19;99209.78;;;9.50;57.76
12973;BME280;6551;51.056;9.466;2024-01-27T03:09:47;99218.28;;;9.76;57.65
12973;BME280;6551;51.056;9.466;2024-01-27T03:12:15;99223.06;;;9.81;57.93
12973;BME280;6551;51.056;9.466;2024-01-27T03:14:41;99216.91;;;9.80;57.66
12973;BME280;6551;51.056;9.466;2024-01-27T03:17:07;99222.91;;;10.05;57.68
12973;BME280;6551;51.056;9.466;2024-01-27T03:19:33;99213.53;;;9.64;58.01
12973;BME280;6551;51.056;9.466;2024-01-27T03:21:59;99225.97;;;9.71;58.24
12973;BME280;6551;51.056;9.466;2024-01-27T03:24:26;99228.19;;;9.60;58.40
12973;BME280;6551;51.056;9.466;2024-01-27T03:26:53;99226.59;;;9.73;58.27
12973;BME280;6551;51.056;9.466;2024-01-27T03:29:19;99219.56;;;9.80;58.13
12973;BME280;6551;51.056;9.466;2024-01-27T03:31:44;99221.16;;;9.67;58.62
12973;BME280;6551;51.056;9.466;2024-01-27T03:34:11;99218.09;;;9.47;58.92
12973;BME280;6551;51.056;9.466;2024-01-27T03:36:37;99231.41;;;9.39;59.14
12973;BME280;6551;51.056;9.466;2024-01-27T03:39:03;99223.38;;;9.55;58.88
12973;BME280;6551;51.056;9.466;2024-01-27T03:41:29;99229.75;;;9.46;59.11
12973;BME280;6551;51.056;9.466;2024-01-27T03:43:56;99226.63;;;9.34;59.33
12973;BME280;6551;51.056;9.466;2024-01-27T03:46:23;99231.06;;;9.42;59.26
12973;BME280;6551;51.056;9.466;2024-01-27T03:48:48;99229.91;;;9.45;59.52
12973;BME280;6551;51.056;9.466;2024-01-27T03:51:15;99228.56;;;9.49;59.24
12973;BME280;6551;51.056;9.466;2024-01-27T03:53:41;99228.06;;;9.45;59.26
12973;BME280;6551;51.056;9.466;2024-01-27T03:56:07;99233.16;;;9.24;59.48
12973;BME280;6551;51.056;9.466;2024-01-27T03:58:32;99233.59;;;9.44;59.50
12973;BME280;6551;51.056;9.466;2024-01-27T04:00:59;99232.25;;;9.39;59.23
12973;BME280;6551;51.056;9.466;2024-01-27T04:03:25;99237.91;;;9.36;59.59
12973;BME280;6551;51.056;9.466;2024-01-27T04:05:51;99236.59;;;9.40;59.44
12973;BME280;6551;51.056;9.466;2024-01-27T04:08:16;99235.91;;;9.38;60.08
12973;BME280;6551;51.056;9.466;2024-01-27T04:10:42;99234.16;;;9.23;60.05
12973;BME280;6551;51.056;9.466;2024-01-27T04:13:08;99242.09;;;9.31;60.04
12973;BME280;6551;51.056;9.466;2024-01-27T04:15:34;99251.88;;;9.30;59.73
12973;BME280;6551;51.056;9.466;2024-01-27T04:18:05;99250.91;;;9.31;60.15
12973;BME280;6551;51.056;9.466;2024-01-27T04:20:34;99254.38;;;9.32;60.06
12973;BME280;6551;51.056;9.466;2024-01-27T04:23:00;99251.78;;;9.16;60.18
12973;BME280;6551;51.056;9.466;2024-01-27T04:25:26;99253.59;;;9.23;60.07
12973;BME280;6551;51.056;9.466;2024-01-27T04:27:54;99252.75;;;9.23;60.49
12973;BME280;6551;51.056;9.466;2024-01-27T04:30:21;99251.69;;;9.40;60.46
12973;BME280;6551;51.056;9.466;2024-01-27T04:32:47;99257.91;;;9.16;60.65
12973;BME280;6551;51.056;9.466;2024-01-27T04:35:14;99256.72;;;9.27;60.40
12973;BME280;6551;51.056;9.466;2024-01-27T04:37:40;99267.22;;;9.12;60.55
12973;BME280;6551;51.056;9.466;2024-01-27T04:40:07;99265.66;;;9.34;60.01
12973;BME280;6551;51.056;9.466;2024-01-27T04:42:39;99260.63;;;9.47;59.89
12973;BME280;6551;51.056;9.466;2024-01-27T04:45:07;99267.81;;;9.38;60.07
12973;BME280;6551;51.056;9.466;2024-01-27T04:47:33;99258.44;;;9.12;60.70
12973;BME280;6551;51.056;9.466;2024-01-27T04:49:58;99255.50;;;9.46;60.25
12973;BME280;6551;51.056;9.466;2024-01-27T04:52:26;99257.09;;;9.63;59.73
12973;BME280;6551;51.056;9.466;2024-01-27T04:54:51;99257.91;;;9.16;59.93
12973;BME280;6551;51.056;9.466;2024-01-27T04:57:18;99272.69;;;9.11;60.64
12973;BME280;6551;51.056;9.466;2024-01-27T04:59:44;99266.59;;;8.94;60.97
12973;BME280;6551;51.056;9.466;2024-01-27T05:02:11;99272.22;;;9.07;61.14
12973;BME280;6551;51.056;9.466;2024-01-27T05:04:39;99265.28;;;8.90;61.25
12973;BME280;6551;51.056;9.466;2024-01-27T05:07:04;99264.13;;;8.85;61.55
12973;BME280;6551;51.056;9.466;2024-01-27T05:09:30;99270.94;;;8.79;61.63
12973;BME280;6551;51.056;9.466;2024-01-27T05:11:56;99275.13;;;8.65;61.61
12973;BME280;6551;51.056;9.466;2024-01-27T05:14:23;99278.06;;;8.78;61.40
12973;BME280;6551;51.056;9.466;2024-01-27T05:16:48;99284.69;;;8.99;61.58
12973;BME280;6551;51.056;9.466;2024-01-27T05:19:15;99277.72;;;8.90;61.73
12973;BME280;6551;51.056;9.466;2024-01-27T05:21:42;99272.59;;;8.72;61.93
12973;BME280;6551;51.056;9.466;2024-01-27T05:24:08;99273.63;;;8.71;61.83
12973;BME280;6551;51.056;9.466;2024-01-27T05:26:34;99271.94;;;8.62;62.38
12973;BME280;6551;51.056;9.466;2024-01-27T05:29:00;99284.25;;;8.55;62.48
12973;BME280;6551;51.056;9.466;2024-01-27T05:31:26;99290.53;;;8.70;62.30
12973;BME280;6551;51.056;9.466;2024-01-27T05:33:52;99299.00;;;8.65;62.35
12973;BME280;6551;51.056;9.466;2024-01-27T05:36:18;99301.50;;;8.59;62.04
12973;BME280;6551;51.056;9.466;2024-01-27T05:38:44;99306.13;;;8.73;61.80
12973;BME280;6551;51.056;9.466;2024-01-27T05:41:09;99306.13;;;8.65;61.75
12973;BME280;6551;51.056;9.466;2024-01-27T05:43:35;99313.78;;;8.52;62.10
12973;BME280;6551;51.056;9.466;2024-01-27T05:46:01;99311.44;;;8.57;61.64
12973;BME280;6551;51.056;9.466;2024-01-27T05:48:26;99320.25;;;8.81;61.59
12973;BME280;6551;51.056;9.466;2024-01-27T05:51:00;99321.22;;;8.80;61.95
12973;BME280;6551;51.056;9.466;2024-01-27T05:53:27;99319.72;;;8.86;61.62
12973;BME280;6551;51.056;9.466;2024-01-27T05:55:53;99312.63;;;8.62;61.94
12973;BME280;6551;51.056;9.466;2024-01-27T05:58:20;99324.53;;;8.58;62.32
12973;BME280;6551;51.056;9.466;2024-01-27T06:00:50;99331.19;;;8.38;62.96
12973;BME280;6551;51.056;9.466;2024-01-27T06:03:16;99336.19;;;8.65;62.90
12973;BME280;6551;51.056;9.466;2024-01-27T06:05:43;99327.06;;;8.60;62.20
12973;BME280;6551;51.056;9.466;2024-01-27T06:08:09;99332.03;;;8.55;63.15
12973;BME280;6551;51.056;9.466;2024-01-27T06:10:35;99326.03;;;8.53;63.16
12973;BME280;6551;51.056;9.466;2024-01-27T06:13:03;99322.06;;;8.73;62.63
12973;BME280;6551;51.056;9.466;2024-01-27T06:15:29;99330.34;;;8.70;62.38
12973;BME280;6551;51.056;9.466;2024-01-27T06:17:57;99331.69;;;8.74;62.76
12973;BME280;6551;51.056;9.466;2024-01-27T06:20:26;99335.53;;;8.79;62.72
12973;BME280;6551;51.056;9.466;2024-01-27T06:22:51;99342.66;;;8.95;62.41
12973;BME280;6551;51.056;9.466;2024-01-27T06:25:20;99340.97;;;8.86;62.10
12973;BME280;6551;51.056;9.466;2024-01-27T06:27:47;99336.84;;;8.83;62.09
12973;BME280;6551;51.056;9.466;2024-01-27T06:30:13;99344.66;;;8.93;62.06
12973;BME280;6551;51.056;9.466;2024-01-27T06:32:40;99350.94;;;8.84;62.09
12973;BME280;6551;51.056;9.466;2024-01-27T06:35:06;99355.94;;;8.79;62.33
12973;BME280;6551;51.056;9.466;2024-01-27T06:37:31;99358.59;;;8.71;62.60
12973;BME280;6551;51.056;9.466;2024-01-27T06:39:57;99353.78;;;8.74;62.08
12973;BME280;6551;51.056;9.466;2024-01-27T06:42:24;99352.09;;;9.06;62.22
12973;BME280;6551;51.056;9.466;2024-01-27T06:44:50;99354.44;;;8.85;62.57
12973;BME280;6551;51.056;9.466;2024-01-27T06:47:16;99352.63;;;8.85;62.50
12973;BME280;6551;51.056;9.466;2024-01-27T06:49:42;99342.66;;;8.71;62.12
12973;BME280;6551;51.056;9.466;2024-01-27T06:52:08;99349.13;;;8.76;62.47
12973;BME280;6551;51.056;9.466;2024-01-27T06:54:33;99346.94;;;8.72;62.46
12973;BME280;6551;51.056;9.466;2024-01-27T06:57:00;99351.28;;;8.73;62.81
12973;BME280;6551;51.056;9.466;2024-01-27T06:59:27;99357.41;;;8.57;63.22
12973;BME280;6551;51.056;9.466;2024-01-27T07:01:53;99363.88;;;8.47;63.12
12973;BME280;6551;51.056;9.466;2024-01-27T07:04:20;99369.53;;;8.60;63.19
12973;BME280;6551;51.056;9.466;2024-01-27T07:06:46;99362.00;;;8.39;63.47
12973;BME280;6551;51.056;9.466;2024-01-27T07:09:13;99361.88;;;8.57;63.67
12973;BME280;6551;51.056;9.466;2024-01-27T07:11:38;99360.38;;;8.46;63.36
12973;BME280;6551;51.056;9.466;2024-01-27T07:14:04;99364.69;;;8.47;63.44
12973;BME280;6551;51.056;9.466;2024-01-27T07:16:30;99363.06;;;8.54;63.33
12973;BME280;6551;51.056;9.466;2024-01-27T07:18:57;99378.97;;;8.46;63.92
12973;BME280;6551;51.056;9.466;2024-01-27T07:21:24;99376.97;;;8.48;63.79
12973;BME280;6551;51.056;9.466;2024-01-27T07:23:51;99376.78;;;8.42;63.37
12973;BME280;6551;51.056;9.466;2024-01-27T07:26:18;99388.94;;;8.60;63.48
12973;BME280;6551;51.056;9.466;2024-01-27T07:28:43;99383.47;;;8.62;63.72
12973;BME280;6551;51.056;9.466;2024-01-27T07:31:09;99383.75;;;8.43;63.88
12973;BME280;6551;51.056;9.466;2024-01-27T07:33:34;99387.56;;;8.40;63.97
12973;BME280;6551;51.056;9.466;2024-01-27T07:36:00;99391.72;;;8.43;63.74
12973;BME280;6551;51.056;9.466;2024-01-27T07:38:28;99396.06;;;8.52;63.93
12973;BME280;6551;51.056;9.466;2024-01-27T07:40:54;99401.38;;;8.60;63.18
12973;BME280;6551;51.056;9.466;2024-01-27T07:43:21;99419.03;;;8.93;63.21
12973;BME280;6551;51.056;9.466;2024-01-27T07:45:46;99417.47;;;8.66;63.04
12973;BME280;6551;51.056;9.466;2024-01-27T07:48:12;99411.03;;;8.69;63.10
12973;BME280;6551;51.056;9.466;2024-01-27T07:50:38;99407.88;;;8.90;62.85
12973;BME280;6551;51.056;9.466;2024-01-27T07:53:03;99412.06;;;9.24;62.46
12973;BME280;6551;51.056;9.466;2024-01-27T07:55:29;99421.28;;;9.61;61.74
12973;BME280;6551;51.056;9.466;2024-01-27T07:57:54;99414.59;;;9.81;60.51
12973;BME280;6551;51.056;9.466;2024-01-27T08:00:22;99429.13;;;10.17;60.14
12973;BME280;6551;51.056;9.466;2024-01-27T08:02:49;99415.97;;;10.24;59.52
12973;BME280;6551;51.056;9.466;2024-01-27T08:05:16;99414.91;;;10.64;58.85
12973;BME280;6551;51.056;9.466;2024-01-27T08:07:41;99409.63;;;10.55;58.61
12973;BME280;6551;51.056;9.466;2024-01-27T08:10:07;99398.72;;;10.73;58.00
12973;BME280;6551;51.056;9.466;2024-01-27T08:12:37;99417.50;;;10.80;58.06
12973;BME280;6551;51.056;9.466;2024-01-27T08:15:03;99414.84;;;10.80;57.81
12973;BME280;6551;51.056;9.466;2024-01-27T08:17:29;99422.09;;;11.08;57.24
12973;BME280;6551;51.056;9.466;2024-01-27T08:19:55;99422.50;;;11.20;56.72
12973;BME280;6551;51.056;9.466;2024-01-27T08:22:21;99423.22;;;11.51;56.16
12973;BME280;6551;51.056;9.466;2024-01-27T08:24:48;99427.38;;;11.54;56.32
12973;BME280;6551;51.056;9.466;2024-01-27T08:27:15;99434.47;;;11.61;55.95
12973;BME280;6551;51.056;9.466;2024-01-27T08:29:41;99431.56;;;11.86;55.54
12973;BME280;6551;51.056;9.466;2024-01-27T08:32:07;99427.78;;;11.80;55.09
12973;BME280;6551;51.056;9.466;2024-01-27T08:34:32;99439.41;;;12.02;55.11
12973;BME280;6551;51.056;9.466;2024-01-27T08:37:01;99437.09;;;12.28;54.48
12973;BME280;6551;51.056;9.466;2024-01-27T08:39:27;99445.94;;;12.28;54.25
12973;BME280;6551;51.056;9.466;2024-01-27T08:41:53;99439.03;;;12.34;54.17
12973;BME280;6551;51.056;9.466;2024-01-27T08:44:20;99437.78;;;12.87;53.56
12973;BME280;6551;51.056;9.466;2024-01-27T08:46:46;99443.97;;;12.52;53.05
12973;BME280;6551;51.056;9.466;2024-01-27T08:49:11;99440.03;;;12.33;53.67
12973;BME280;6551;51.056;9.466;2024-01-27T08:51:37;99432.91;;;12.55;53.58
12973;BME280;6551;51.056;9.466;2024-01-27T08:54:03;99426.78;;;12.75;53.36
12973;BME280;6551;51.056;9.466;2024-01-27T08:56:28;99420.53;;;12.89;53.01
12973;BME280;6551;51.056;9.466;2024-01-27T08:58:54;99418.03;;;12.31;53.67
12973;BME280;6551;51.056;9.466;2024-01-27T09:01:21;99425.06;;;12.89;52.82
12973;BME280;6551;51.056;9.466;2024-01-27T09:03:46;99425.88;;;12.89;52.81
12973;BME280;6551;51.056;9.466;2024-01-27T09:06:13;99422.22;;;13.12;52.13
12973;BME280;6551;51.056;9.466;2024-01-27T09:08:39;99422.31;;;13.18;52.19
12973;BME280;6551;51.056;9.466;2024-01-27T09:11:05;99426.44;;;13.21;51.88
12973;BME280;6551;51.056;9.466;2024-01-27T09:13:31;99419.91;;;13.51;51.24
12973;BME280;6551;51.056;9.466;2024-01-27T09:15:59;99422.19;;;13.33;51.71
12973;BME280;6551;51.056;9.466;2024-01-27T09:18:26;99424.34;;;13.44;51.48
12973;BME280;6551;51.056;9.466;2024-01-27T09:20:53;99424.22;;;12.67;52.35
12973;BME280;6551;51.056;9.466;2024-01-27T09:23:18;99428.88;;;12.44;53.39
12973;BME280;6551;51.056;9.466;2024-01-27T09:25:44;99436.41;;;12.55;53.06
12973;BME280;6551;51.056;9.466;2024-01-27T09:28:10;99428.81;;;12.38;53.32
12973;BME280;6551;51.056;9.466;2024-01-27T09:30:36;99433.31;;;12.08;54.29
12973;BME280;6551;51.056;9.466;2024-01-27T09:33:02;99424.94;;;12.40;54.31
12973;BME280;6551;51.056;9.466;2024-01-27T09:35:28;99422.47;;;11.95;54.52
12973;BME280;6551;51.056;9.466;2024-01-27T09:37:55;99426.97;;;12.09;54.75
12973;BME280;6551;51.056;9.466;2024-01-27T09:40:22;99424.97;;;11.82;55.09
12973;BME280;6551;51.056;9.466;2024-01-27T09:42:52;99436.72;;;12.31;55.26
12973;BME280;6551;51.056;9.466;2024-01-27T09:45:23;99424.47;;;12.22;54.96
12973;BME280;6551;51.056;9.466;2024-01-27T09:47:49;99433.31;;;11.79;55.63
12973;BME280;6551;51.056;9.466;2024-01-27T09:50:18;99437.56;;;11.88;55.91
12973;BME280;6551;51.056;9.466;2024-01-27T09:52:44;99442.81;;;11.96;55.62
12973;BME280;6551;51.056;9.466;2024-01-27T09:55:11;99443.06;;;11.86;55.89
12973;BME280;6551;51.056;9.466;2024-01-27T09:57:38;99451.41;;;11.68;55.85
12973;BME280;6551;51.056;9.466;2024-01-27T10:00:09;99454.31;;;11.82;56.29
12973;BME280;6551;51.056;9.466;2024-01-27T10:02:39;99457.47;;;12.14;55.32
12973;BME280;6551;51.056;9.466;2024-01-27T10:05:08;99452.44;;;12.55;54.84
12973;BME280;6551;51.056;9.466;2024-01-27T10:07:34;99458.13;;;12.67;53.88
12973;BME280;6551;51.056;9.466;2024-01-27T10:10:00;99451.34;;;12.50;54.20
12973;BME280;6551;51.056;9.466;2024-01-27T10:12:28;99442.81;;;12.75;54.07
12973;BME280;6551;51.056;9.466;2024-01-27T10:14:55;99442.56;;;12.91;53.80
12973;BME280;6551;51.056;9.466;2024-01-27T10:17:22;99453.94;;;13.15;52.99
12973;BME280;6551;51.056;9.466;2024-01-27T10:20:11;99444.72;;;13.17;52.92
12973;BME280;6551;51.056;9.466;2024-01-27T10:22:39;99441.13;;;13.31;52.91
12973;BME280;6551;51.056;9.466;2024-01-27T10:25:07;99448.72;;;13.49;52.37
12973;BME280;6551;51.056;9.466;2024-01-27T10:27:33;99447.34;;;13.38;52.70
12973;BME280;6551;51.056;9.466;2024-01-27T10:29:59;99458.41;;;13.29;52.37
12973;BME280;6551;51.056;9.466;2024-01-27T10:32:26;99459.09;;;13.37;52.58
12973;BME280;6551;51.056;9.466;2024-01-27T10:35:12;99448.94;;;13.54;52.06
12973;BME280;6551;51.056;9.466;2024-01-27T10:37:38;99451.63;;;13.82;51.52
12973;BME280;6551;51.056;9.466;2024-01-27T10:40:08;99453.22;;;14.04;51.36
12973;BME280;6551;51.056;9.466;2024-01-27T10:42:35;99440.50;;;14.13;51.09
12973;BME280;6551;51.056;9.466;2024-01-27T10:45:03;99451.31;;;13.42;51.54
12973;BME280;6551;51.056;9.466;2024-01-27T10:47:31;99453.19;;;13.70;51.37
12973;BME280;6551;51.056;9.466;2024-01-27T10:50:00;99455.00;;;13.90;51.48
12973;BME280;6551;51.056;9.466;2024-01-27T10:52:47;99454.22;;;13.69;51.49
12973;BME280;6551;51.056;9.466;2024-01-27T10:55:13;99451.44;;;13.56;52.15
12973;BME280;6551;51.056;9.466;2024-01-27T10:57:42;99444.84;;;13.86;51.45
12973;BME280;6551;51.056;9.466;2024-01-27T11:00:08;99447.88;;;13.48;52.25
12973;BME280;6551;51.056;9.466;2024-01-27T11:02:36;99448.84;;;13.41;52.13
12973;BME280;6551;51.056;9.466;2024-01-27T11:05:05;99448.94;;;13.54;51.96
12973;BME280;6551;51.056;9.466;2024-01-27T11:07:35;99452.00;;;13.51;52.11
12973;BME280;6551;51.056;9.466;2024-01-27T11:10:02;99462.38;;;13.61;53.16
12973;BME280;6551;51.056;9.466;2024-01-27T11:12:28;99458.19;;;13.52;52.85
12973;BME280;6551;51.056;9.466;2024-01-27T11:14:54;99460.59;;;13.68;52.14
12973;BME280;6551;51.056;9.466;2024-01-27T11:17:25;99458.53;;;13.97;51.78
12973;BME280;6551;51.056;9.466;2024-01-27T11:19:51;99457.44;;;13.85;51.80
12973;BME280;6551;51.056;9.466;2024-01-27T11:22:28;99457.13;;;14.01;51.48
12973;BME280;6551;51.056;9.466;2024-01-27T11:25:16;99459.06;;;13.86;51.91
12973;BME280;6551;51.056;9.466;2024-01-27T11:27:44;99463.13;;;13.27;52.84
12973;BME280;6551;51.056;9.466;2024-01-27T11:30:33;99450.97;;;13.24;52.92
12973;BME280;6551;51.056;9.466;2024-01-27T11:33:01;99464.03;;;13.13;52.80
12973;BME280;6551;51.056;9.466;2024-01-27T11:35:28;99461.88;;;13.51;52.67
12973;BME280;6551;51.056;9.466;2024-01-27T11:37:56;99453.41;;;13.47;52.40
12973;BME280;6551;51.056;9.466;2024-01-27T11:40:23;99451.66;;;13.61;52.53
12973;BME280;6551;51.056;9.466;2024-01-27T11:43:01;99439.66;;;13.50;52.29
12973;BME280;6551;51.056;9.466;2024-01-27T11:45:30;99447.97;;;13.62;51.77
12973;BME280;6551;51.056;9.466;2024-01-27T11:47:56;99438.41;;;13.74;52.02
12973;BME280;6551;51.056;9.466;2024-01-27T11:50:23;99447.88;;;13.76;51.86
12973;BME280;6551;51.056;9.466;2024-01-27T11:52:49;99429.69;;;13.37;52.60
12973;BME280;6551;51.056;9.466;2024-01-27T11:55:16;99429.00;;;13.57;51.96
12973;BME280;6551;51.056;9.466;2024-01-27T11:57:44;99425.78;;;13.68;52.17
12973;BME280;6551;51.056;9.466;2024-01-27T12:00:11;99417.69;;;13.33;52.02
12973;BME280;6551;51.056;9.466;2024-01-27T12:02:38;99419.16;;;13.64;51.93
12973;BME280;6551;51.056;9.466;2024-01-27T12:05:08;99414.16;;;13.88;51.52
12973;BME280;6551;51.056;9.466;2024-01-27T12:07:34;99421.09;;;14.11;51.53
12973;BME280;6551;51.056;9.466;2024-01-27T12:10:00;99419.47;;;14.10;50.93
12973;BME280;6551;51.056;9.466;2024-01-27T12:12:26;99412.28;;;14.17;50.78
12973;BME280;6551;51.056;9.466;2024-01-27T12:14:52;99420.69;;;14.48;50.05
12973;BME280;6551;51.056;9.466;2024-01-27T12:17:20;99431.50;;;14.68;49.84
12973;BME280;6551;51.056;9.466;2024-01-27T12:19:48;99424.53;;;14.80;50.34
12973;BME280;6551;51.056;9.466;2024-01-27T12:22:24;99414.56;;;14.67;49.15
12973;BME280;6551;51.056;9.466;2024-01-27T12:24:52;99423.47;;;14.74;48.80
12973;BME280;6551;51.056;9.466;2024-01-27T12:27:20;99425.31;;;14.80;48.58
12973;BME280;6551;51.056;9.466;2024-01-27T12:29:48;99421.84;;;14.80;49.02
12973;BME280;6551;51.056;9.466;2024-01-27T12:32:17;99425.41;;;15.06;47.92
12973;BME280;6551;51.056;9.466;2024-01-27T12:34:43;99423.94;;;14.97;48.20
12973;BME280;6551;51.056;9.466;2024-01-27T12:37:12;99439.81;;;14.92;48.09
12973;BME280;6551;51.056;9.466;2024-01-27T12:39:43;99432.22;;;15.09;48.39
12973;BME280;6551;51.056;9.466;2024-01-27T12:42:11;99422.50;;;15.08;47.85
12973;BME280;6551;51.056;9.466;2024-01-27T12:44:36;99428.41;;;14.71;48.39
12973;BME280;6551;51.056;9.466;2024-01-27T12:47:02;99434.19;;;14.68;48.47
12973;BME280;6551;51.056;9.466;2024-01-27T12:49:29;99439.59;;;14.94;48.52
12973;BME280;6551;51.056;9.466;2024-01-27T12:51:55;99431.38;;;15.08;48.42
12973;BME280;6551;51.056;9.466;2024-01-27T12:54:22;99428.16;;;15.65;48.24
12973;BME280;6551;51.056;9.466;2024-01-27T12:56:48;99424.00;;;15.69;47.82
12973;BME280;6551;51.056;9.466;2024-01-27T12:59:14;99434.97;;;15.55;47.39
12973;BME280;6551;51.056;9.466;2024-01-27T13:01:40;99428.72;;;15.28;48.06
12973;BME280;6551;51.056;9.466;2024-01-27T13:04:06;99436.00;;;15.54;47.98
12973;BME280;6551;51.056;9.466;2024-01-27T13:06:32;99426.91;;;15.61;46.97
12973;BME280;6551;51.056;9.466;2024-01-27T13:08:57;99426.28;;;15.59;47.25
12973;BME280;6551;51.056;9.466;2024-01-27T13:11:23;99422.28;;;16.08;47.31
12973;BME280;6551;51.056;9.466;2024-01-27T13:13:50;99420.03;;;15.92;46.78
12973;BME280;6551;51.056;9.466;2024-01-27T13:16:16;99402.47;;;15.89;46.74